sensor_id;sensor_type;location;lat;lon;timestamp;temperature;humidity
15359;DHT22;7779;49.596;11.070;2022-07-06T00:01:46;17.60;47.10
15359;DHT22;7779;49.596;11.070;2022-07-06T00:04:12;17.50;47.60
15359;DHT22;7779;49.596;11.070;2022-07-06T00:06:38;17.50;47.10
15359;DHT22;7779;49.596;11.070;2022-07-06T00:09:05;17.50;47.10
15359;DHT22;7779;49.596;11.070;2022-07-06T00:11:32;17.50;47.20
15359;DHT22;7779;49.596;11.070;2022-07-06T00:13:58;17.40;47.80
15359;DHT22;7779;49.596;11.070;2022-07-06T00:16:25;17.40;47.30
15359;DHT22;7779;49.596;11.070;2022-07-06T00:18:51;17.30;47.20
15359;DHT22;7779;49.596;11.070;2022-07-06T00:21:17;17.30;47.30
15359;DHT22;7779;49.596;11.070;2022-07-06T00:23:44;17.20;47.40
15359;DHT22;7779;49.596;11.070;2022-07-06T00:26:10;17.20;47.50
15359;DHT22;7779;49.596;11.070;2022-07-06T00:28:36;17.10;47.60
15359;DHT22;7779;49.596;11.070;2022-07-06T00:31:02;17.00;47.60
15359;DHT22;7779;49.596;11.070;2022-07-06T00:33:28;17.00;48.30
15359;DHT22;7779;49.596;11.070;2022-07-06T00:35:54;16.90;47.80
15359;DHT22;7779;49.596;11.070;2022-07-06T00:38:20;16.90;47.90
15359;DHT22;7779;49.596;11.070;2022-07-06T00:40:45;16.80;47.90
15359;DHT22;7779;49.596;11.070;2022-07-06T00:43:12;16.70;48.00
15359;DHT22;7779;49.596;11.070;2022-07-06T00:45:38;16.70;48.20
15359;DHT22;7779;49.596;11.070;2022-07-06T00:48:04;16.70;48.30
15359;DHT22;7779;49.596;11.070;2022-07-06T00:50:30;16.60;48.40
15359;DHT22;7779;49.596;11.070;2022-07-06T00:53:02;16.60;48.50
15359;DHT22;7779;49.596;11.070;2022-07-06T00:55:32;16.60;48.70
15359;DHT22;7779;49.596;11.070;2022-07-06T00:58:03;16.60;48.80
15359;DHT22;7779;49.596;11.070;2022-07-06T01:00:29;16.50;48.80
15359;DHT22;7779;49.596;11.070;2022-07-06T01:02:56;16.50;49.00
15359;DHT22;7779;49.596;11.070;2022-07-06T01:05:22;16.50;49.10
15359;DHT22;7779;49.596;11.070;2022-07-06T01:07:52;16.40;49.70
15359;DHT22;7779;49.596;11.070;2022-07-06T01:10:19;16.40;49.20
15359;DHT22;7779;49.596;11.070;2022-07-06T01:12:47;16.40;49.40
15359;DHT22;7779;49.596;11.070;2022-07-06T01:15:17;16.60;49.60
15359;DHT22;7779;49.596;11.070;2022-07-06T01:17:49;16.30;49.50
15359;DHT22;7779;49.596;11.070;2022-07-06T01:20:20;16.30;49.50
15359;DHT22;7779;49.596;11.070;2022-07-06T01:22:48;16.30;49.60
15359;DHT22;7779;49.596;11.070;2022-07-06T01:25:16;16.30;49.80
15359;DHT22;7779;49.596;11.070;2022-07-06T01:27:44;16.20;49.80
15359;DHT22;7779;49.596;11.070;2022-07-06T01:30:12;16.20;49.90
15359;DHT22;7779;49.596;11.070;2022-07-06T01:32:40;16.20;50.00
15359;DHT22;7779;49.596;11.070;2022-07-06T01:35:08;16.10;50.00
15359;DHT22;7779;49.596;11.070;2022-07-06T01:37:36;16.10;50.20
15359;DHT22;7779;49.596;11.070;2022-07-06T01:40:07;16.10;50.20
15359;DHT22;7779;49.596;11.070;2022-07-06T01:42:35;16.10;50.70
15359;DHT22;7779;49.596;11.070;2022-07-06T01:45:02;16.00;50.90
15359;DHT22;7779;49.596;11.070;2022-07-06T01:47:29;16.00;50.40
15359;DHT22;7779;49.596;11.070;2022-07-06T01:49:58;16.00;50.50
15359;DHT22;7779;49.596;11.070;2022-07-06T01:52:26;15.90;50.10
15359;DHT22;7779;49.596;11.070;2022-07-06T01:54:53;15.90;50.60
15359;DHT22;7779;49.596;11.070;2022-07-06T01:57:20;15.90;50.70
15359;DHT22;7779;49.596;11.070;2022-07-06T01:59:45;15.90;50.80
15359;DHT22;7779;49.596;11.070;2022-07-06T02:02:13;15.80;50.70
15359;DHT22;7779;49.596;11.070;2022-07-06T02:04:39;15.80;51.30
15359;DHT22;7779;49.596;11.070;2022-07-06T02:07:06;15.80;50.90
15359;DHT22;7779;49.596;11.070;2022-07-06T02:09:32;15.70;50.90
15359;DHT22;7779;49.596;11.070;2022-07-06T02:12:00;15.70;51.00
15359;DHT22;7779;49.596;11.070;2022-07-06T02:14:26;15.60;51.00
15359;DHT22;7779;49.596;11.070;2022-07-06T02:16:52;15.60;51.20
15359;DHT22;7779;49.596;11.070;2022-07-06T02:19:18;15.60;51.30
15359;DHT22;7779;49.596;11.070;2022-07-06T02:21:45;15.50;51.30
15359;DHT22;7779;49.596;11.070;2022-07-06T02:24:12;15.50;51.40
15359;DHT22;7779;49.596;11.070;2022-07-06T02:26:39;15.50;51.60
15359;DHT22;7779;49.596;11.070;2022-07-06T02:29:05;15.50;51.70
15359;DHT22;7779;49.596;11.070;2022-07-06T02:31:31;15.50;51.80
15359;DHT22;7779;49.596;11.070;2022-07-06T02:33:57;15.50;52.00
15359;DHT22;7779;49.596;11.070;2022-07-06T02:36:23;15.50;52.20
15359;DHT22;7779;49.596;11.070;2022-07-06T02:38:49;15.40;52.20
15359;DHT22;7779;49.596;11.070;2022-07-06T02:41:15;15.40;52.30
15359;DHT22;7779;49.596;11.070;2022-07-06T02:43:41;15.50;52.50
15359;DHT22;7779;49.596;11.070;2022-07-06T02:46:08;15.50;52.50
15359;DHT22;7779;49.596;11.070;2022-07-06T02:48:34;15.50;52.60
15359;DHT22;7779;49.596;11.070;2022-07-06T02:51:00;15.50;52.70
15359;DHT22;7779;49.596;11.070;2022-07-06T02:53:27;15.50;52.70
15359;DHT22;7779;49.596;11.070;2022-07-06T02:55:54;15.50;52.80
15359;DHT22;7779;49.596;11.070;2022-07-06T02:58:20;15.50;52.80
15359;DHT22;7779;49.596;11.070;2022-07-06T03:00:47;15.50;52.80
15359;DHT22;7779;49.596;11.070;2022-07-06T03:03:13;15.50;52.80
15359;DHT22;7779;49.596;11.070;2022-07-06T03:05:39;15.40;52.70
15359;DHT22;7779;49.596;11.070;2022-07-06T03:08:05;15.40;52.80
15359;DHT22;7779;49.596;11.070;2022-07-06T03:10:31;15.40;52.90
15359;DHT22;7779;49.596;11.070;2022-07-06T03:12:57;15.40;53.10
15359;DHT22;7779;49.596;11.070;2022-07-06T03:15:23;15.40;53.20
15359;DHT22;7779;49.596;11.070;2022-07-06T03:17:49;15.40;53.30
15359;DHT22;7779;49.596;11.070;2022-07-06T03:20:15;15.40;53.40
15359;DHT22;7779;49.596;11.070;2022-07-06T03:22:42;15.40;53.60
15359;DHT22;7779;49.596;11.070;2022-07-06T03:25:10;15.50;53.70
15359;DHT22;7779;49.596;11.070;2022-07-06T03:27:38;15.50;53.80
15359;DHT22;7779;49.596;11.070;2022-07-06T03:30:04;15.50;53.80
15359;DHT22;7779;49.596;11.070;2022-07-06T03:32:33;15.50;53.90
15359;DHT22;7779;49.596;11.070;2022-07-06T03:35:01;15.50;53.80
15359;DHT22;7779;49.596;11.070;2022-07-06T03:37:27;15.60;54.00
15359;DHT22;7779;49.596;11.070;2022-07-06T03:39:53;15.60;54.00
15359;DHT22;7779;49.596;11.070;2022-07-06T03:42:19;15.60;54.00
15359;DHT22;7779;49.596;11.070;2022-07-06T03:44:45;15.70;54.20
15359;DHT22;7779;49.596;11.070;2022-07-06T03:47:12;15.70;54.30
15359;DHT22;7779;49.596;11.070;2022-07-06T03:49:38;15.70;54.30
15359;DHT22;7779;49.596;11.070;2022-07-06T03:52:06;15.80;54.50
15359;DHT22;7779;49.596;11.070;2022-07-06T03:54:40;15.90;54.80
15359;DHT22;7779;49.596;11.070;2022-07-06T03:57:07;16.00;55.10
15359;DHT22;7779;49.596;11.070;2022-07-06T03:59:33;16.10;55.10
15359;DHT22;7779;49.596;11.070;2022-07-06T04:01:59;16.20;55.10
15359;DHT22;7779;49.596;11.070;2022-07-06T04:04:25;16.30;55.00
15359;DHT22;7779;49.596;11.070;2022-07-06T04:06:52;16.30;54.90
15359;DHT22;7779;49.596;11.070;2022-07-06T04:09:18;16.40;54.80
15359;DHT22;7779;49.596;11.070;2022-07-06T04:11:46;16.40;54.70
15359;DHT22;7779;49.596;11.070;2022-07-06T04:14:12;16.50;54.80
15359;DHT22;7779;49.596;11.070;2022-07-06T04:16:39;16.50;54.80
15359;DHT22;7779;49.596;11.070;2022-07-06T04:19:05;16.50;54.70
15359;DHT22;7779;49.596;11.070;2022-07-06T04:21:32;16.60;54.80
15359;DHT22;7779;49.596;11.070;2022-07-06T04:23:58;16.60;54.90
15359;DHT22;7779;49.596;11.070;2022-07-06T04:26:25;16.60;54.90
15359;DHT22;7779;49.596;11.070;2022-07-06T04:28:52;16.70;55.00
15359;DHT22;7779;49.596;11.070;2022-07-06T04:31:18;16.70;55.00
15359;DHT22;7779;49.596;11.070;2022-07-06T04:33:47;16.80;55.10
15359;DHT22;7779;49.596;11.070;2022-07-06T04:36:13;16.80;55.20
15359;DHT22;7779;49.596;11.070;2022-07-06T04:38:42;16.90;55.50
15359;DHT22;7779;49.596;11.070;2022-07-06T04:41:10;17.00;55.90
15359;DHT22;7779;49.596;11.070;2022-07-06T04:43:36;17.20;57.10
15359;DHT22;7779;49.596;11.070;2022-07-06T04:46:02;17.50;57.10
15359;DHT22;7779;49.596;11.070;2022-07-06T04:48:30;17.70;57.30
15359;DHT22;7779;49.596;11.070;2022-07-06T04:50:58;18.00;57.40
15359;DHT22;7779;49.596;11.070;2022-07-06T04:53:27;18.30;57.20
15359;DHT22;7779;49.596;11.070;2022-07-06T04:55:53;18.60;56.80
15359;DHT22;7779;49.596;11.070;2022-07-06T04:58:19;18.80;56.40
15359;DHT22;7779;49.596;11.070;2022-07-06T05:00:47;19.10;56.20
15359;DHT22;7779;49.596;11.070;2022-07-06T05:03:13;19.30;56.20
15359;DHT22;7779;49.596;11.070;2022-07-06T05:05:38;19.60;56.20
15359;DHT22;7779;49.596;11.070;2022-07-06T05:08:04;19.80;56.00
15359;DHT22;7779;49.596;11.070;2022-07-06T05:10:30;20.10;55.70
15359;DHT22;7779;49.596;11.070;2022-07-06T05:12:57;20.30;55.10
15359;DHT22;7779;49.596;11.070;2022-07-06T05:15:24;20.50;54.70
15359;DHT22;7779;49.596;11.070;2022-07-06T05:17:50;20.70;54.40
15359;DHT22;7779;49.596;11.070;2022-07-06T05:20:17;20.90;54.10
15359;DHT22;7779;49.596;11.070;2022-07-06T05:22:46;21.10;53.80
15359;DHT22;7779;49.596;11.070;2022-07-06T05:25:13;21.30;53.50
15359;DHT22;7779;49.596;11.070;2022-07-06T05:27:40;21.50;53.40
15359;DHT22;7779;49.596;11.070;2022-07-06T05:30:07;21.70;53.30
15359;DHT22;7779;49.596;11.070;2022-07-06T05:32:33;21.90;53.10
15359;DHT22;7779;49.596;11.070;2022-07-06T05:34:59;22.10;52.70
15359;DHT22;7779;49.596;11.070;2022-07-06T05:37:25;22.30;52.30
15359;DHT22;7779;49.596;11.070;2022-07-06T05:39:51;22.40;51.80
15359;DHT22;7779;49.596;11.070;2022-07-06T05:42:17;22.50;51.30
15359;DHT22;7779;49.596;11.070;2022-07-06T05:44:45;22.70;51.10
15359;DHT22;7779;49.596;11.070;2022-07-06T05:47:10;22.80;50.70
15359;DHT22;7779;49.596;11.070;2022-07-06T05:49:55;22.90;50.30
15359;DHT22;7779;49.596;11.070;2022-07-06T05:52:56;23.00;50.10
15359;DHT22;7779;49.596;11.070;2022-07-06T05:55:24;23.10;49.30
15359;DHT22;7779;49.596;11.070;2022-07-06T05:57:52;23.20;49.50
15359;DHT22;7779;49.596;11.070;2022-07-06T06:00:23;23.30;49.40
15359;DHT22;7779;49.596;11.070;2022-07-06T06:02:53;23.40;48.50
15359;DHT22;7779;49.596;11.070;2022-07-06T06:05:20;23.50;49.20
15359;DHT22;7779;49.596;11.070;2022-07-06T06:07:49;23.60;49.00
15359;DHT22;7779;49.596;11.070;2022-07-06T06:10:17;23.70;48.90
15359;DHT22;7779;49.596;11.070;2022-07-06T06:12:49;23.80;48.70
15359;DHT22;7779;49.596;11.070;2022-07-06T06:15:15;23.90;48.50
15359;DHT22;7779;49.596;11.070;2022-07-06T06:17:41;23.90;48.20
15359;DHT22;7779;49.596;11.070;2022-07-06T06:20:09;24.00;47.90
15359;DHT22;7779;49.596;11.070;2022-07-06T06:25:21;24.20;46.90
15359;DHT22;7779;49.596;11.070;2022-07-06T06:27:53;24.20;47.30
15359;DHT22;7779;49.596;11.070;2022-07-06T06:30:19;24.30;47.20
15359;DHT22;7779;49.596;11.070;2022-07-06T06:32:45;24.40;47.10
15359;DHT22;7779;49.596;11.070;2022-07-06T06:35:11;24.50;46.90
15359;DHT22;7779;49.596;11.070;2022-07-06T06:37:37;24.60;46.90
15359;DHT22;7779;49.596;11.070;2022-07-06T06:40:04;24.70;46.70
15359;DHT22;7779;49.596;11.070;2022-07-06T06:42:32;24.80;46.60
15359;DHT22;7779;49.596;11.070;2022-07-06T06:45:05;24.90;46.40
15359;DHT22;7779;49.596;11.070;2022-07-06T06:47:31;25.10;46.30
15359;DHT22;7779;49.596;11.070;2022-07-06T06:49:57;25.20;46.20
15359;DHT22;7779;49.596;11.070;2022-07-06T06:52:23;25.30;46.10
15359;DHT22;7779;49.596;11.070;2022-07-06T06:54:49;25.40;46.00
15359;DHT22;7779;49.596;11.070;2022-07-06T06:57:15;25.50;46.00
15359;DHT22;7779;49.596;11.070;2022-07-06T06:59:40;25.60;45.80
15359;DHT22;7779;49.596;11.070;2022-07-06T07:02:06;25.70;45.40
15359;DHT22;7779;49.596;11.070;2022-07-06T07:04:32;25.70;45.10
15359;DHT22;7779;49.596;11.070;2022-07-06T07:06:58;25.80;44.80
15359;DHT22;7779;49.596;11.070;2022-07-06T07:09:24;25.70;44.50
15359;DHT22;7779;49.596;11.070;2022-07-06T07:11:50;25.80;44.40
15359;DHT22;7779;49.596;11.070;2022-07-06T07:14:16;25.80;44.30
15359;DHT22;7779;49.596;11.070;2022-07-06T07:16:42;25.80;44.30
15359;DHT22;7779;49.596;11.070;2022-07-06T07:19:08;25.80;44.10
15359;DHT22;7779;49.596;11.070;2022-07-06T07:21:33;25.90;44.10
15359;DHT22;7779;49.596;11.070;2022-07-06T07:23:59;25.90;43.80
15359;DHT22;7779;49.596;11.070;2022-07-06T07:26:25;25.80;43.40
15359;DHT22;7779;49.596;11.070;2022-07-06T07:28:51;25.80;43.10
15359;DHT22;7779;49.596;11.070;2022-07-06T07:31:17;25.70;42.90
15359;DHT22;7779;49.596;11.070;2022-07-06T07:33:42;25.60;42.70
15359;DHT22;7779;49.596;11.070;2022-07-06T07:36:08;25.50;42.50
15359;DHT22;7779;49.596;11.070;2022-07-06T07:38:34;25.50;42.50
15359;DHT22;7779;49.596;11.070;2022-07-06T07:41:00;25.40;42.50
15359;DHT22;7779;49.596;11.070;2022-07-06T07:43:26;25.40;42.60
15359;DHT22;7779;49.596;11.070;2022-07-06T07:45:52;25.40;42.50
15359;DHT22;7779;49.596;11.070;2022-07-06T07:48:17;25.30;42.30
15359;DHT22;7779;49.596;11.070;2022-07-06T07:50:43;25.30;42.30
15359;DHT22;7779;49.596;11.070;2022-07-06T07:53:09;25.30;42.40
15359;DHT22;7779;49.596;11.070;2022-07-06T07:55:35;25.30;42.50
15359;DHT22;7779;49.596;11.070;2022-07-06T07:58:01;25.20;42.30
15359;DHT22;7779;49.596;11.070;2022-07-06T08:00:27;25.20;42.30
15359;DHT22;7779;49.596;11.070;2022-07-06T08:02:54;25.30;42.30
15359;DHT22;7779;49.596;11.070;2022-07-06T08:05:20;25.30;42.50
15359;DHT22;7779;49.596;11.070;2022-07-06T08:07:46;25.30;42.50
15359;DHT22;7779;49.596;11.070;2022-07-06T08:10:12;25.40;42.40
15359;DHT22;7779;49.596;11.070;2022-07-06T08:12:38;25.50;42.30
15359;DHT22;7779;49.596;11.070;2022-07-06T08:15:05;25.50;42.10
15359;DHT22;7779;49.596;11.070;2022-07-06T08:17:31;25.60;41.90
15359;DHT22;7779;49.596;11.070;2022-07-06T08:19:57;25.60;41.70
15359;DHT22;7779;49.596;11.070;2022-07-06T08:22:23;25.60;41.60
15359;DHT22;7779;49.596;11.070;2022-07-06T08:24:49;25.60;41.00
15359;DHT22;7779;49.596;11.070;2022-07-06T08:27:15;25.80;41.80
15359;DHT22;7779;49.596;11.070;2022-07-06T08:29:42;25.80;41.50
15359;DHT22;7779;49.596;11.070;2022-07-06T08:32:08;25.90;41.20
15359;DHT22;7779;49.596;11.070;2022-07-06T08:34:33;25.90;41.00
15359;DHT22;7779;49.596;11.070;2022-07-06T08:36:59;25.90;40.70
15359;DHT22;7779;49.596;11.070;2022-07-06T08:39:25;25.90;41.30
15359;DHT22;7779;49.596;11.070;2022-07-06T08:41:51;25.90;40.70
15359;DHT22;7779;49.596;11.070;2022-07-06T08:44:18;26.00;40.50
15359;DHT22;7779;49.596;11.070;2022-07-06T08:46:45;26.00;40.60
15359;DHT22;7779;49.596;11.070;2022-07-06T08:49:15;26.10;40.50
15359;DHT22;7779;49.596;11.070;2022-07-06T08:51:43;26.10;40.20
15359;DHT22;7779;49.596;11.070;2022-07-06T08:54:11;26.10;40.40
15359;DHT22;7779;49.596;11.070;2022-07-06T08:56:38;26.20;40.40
15359;DHT22;7779;49.596;11.070;2022-07-06T08:59:04;26.20;40.70
15359;DHT22;7779;49.596;11.070;2022-07-06T09:01:33;26.20;40.10
15359;DHT22;7779;49.596;11.070;2022-07-06T09:04:00;26.20;39.00
15359;DHT22;7779;49.596;11.070;2022-07-06T09:06:28;26.30;40.50
15359;DHT22;7779;49.596;11.070;2022-07-06T09:08:56;26.30;39.80
15359;DHT22;7779;49.596;11.070;2022-07-06T09:11:23;26.30;40.30
15359;DHT22;7779;49.596;11.070;2022-07-06T09:13:51;26.30;39.70
15359;DHT22;7779;49.596;11.070;2022-07-06T09:16:17;26.40;40.50
15359;DHT22;7779;49.596;11.070;2022-07-06T09:18:44;26.40;39.80
15359;DHT22;7779;49.596;11.070;2022-07-06T09:21:10;26.50;39.80
15359;DHT22;7779;49.596;11.070;2022-07-06T09:23:37;26.50;39.60
15359;DHT22;7779;49.596;11.070;2022-07-06T09:26:06;26.60;39.40
15359;DHT22;7779;49.596;11.070;2022-07-06T09:28:42;26.60;39.30
15359;DHT22;7779;49.596;11.070;2022-07-06T09:31:10;26.60;38.70
15359;DHT22;7779;49.596;11.070;2022-07-06T09:33:36;26.60;39.10
15359;DHT22;7779;49.596;11.070;2022-07-06T09:36:02;26.70;39.10
15359;DHT22;7779;49.596;11.070;2022-07-06T09:38:31;26.70;39.20
15359;DHT22;7779;49.596;11.070;2022-07-06T09:40:57;26.80;39.80
15359;DHT22;7779;49.596;11.070;2022-07-06T09:43:24;26.80;39.00
15359;DHT22;7779;49.596;11.070;2022-07-06T09:45:55;26.80;38.80
15359;DHT22;7779;49.596;11.070;2022-07-06T09:48:23;26.90;38.70
15359;DHT22;7779;49.596;11.070;2022-07-06T09:50:59;26.90;39.40
15359;DHT22;7779;49.596;11.070;2022-07-06T09:53:28;27.00;38.50
15359;DHT22;7779;49.596;11.070;2022-07-06T09:55:57;27.10;38.90
15359;DHT22;7779;49.596;11.070;2022-07-06T09:58:27;27.20;39.00
15359;DHT22;7779;49.596;11.070;2022-07-06T10:00:54;27.30;38.80
15359;DHT22;7779;49.596;11.070;2022-07-06T10:03:20;27.40;38.50
15359;DHT22;7779;49.596;11.070;2022-07-06T10:05:47;27.40;38.10
15359;DHT22;7779;49.596;11.070;2022-07-06T10:08:15;27.50;38.10
15359;DHT22;7779;49.596;11.070;2022-07-06T10:10:43;27.60;38.20
15359;DHT22;7779;49.596;11.070;2022-07-06T10:13:10;27.60;37.80
15359;DHT22;7779;49.596;11.070;2022-07-06T10:15:39;27.60;37.80
15359;DHT22;7779;49.596;11.070;2022-07-06T10:18:09;27.60;38.20
15359;DHT22;7779;49.596;11.070;2022-07-06T10:20:37;27.70;37.50
15359;DHT22;7779;49.596;11.070;2022-07-06T10:23:06;27.70;37.90
15359;DHT22;7779;49.596;11.070;2022-07-06T10:25:34;27.70;37.10
15359;DHT22;7779;49.596;11.070;2022-07-06T10:28:01;27.60;37.00
15359;DHT22;7779;49.596;11.070;2022-07-06T10:30:28;27.50;36.80
15359;DHT22;7779;49.596;11.070;2022-07-06T10:32:57;27.40;37.00
15359;DHT22;7779;49.596;11.070;2022-07-06T10:35:24;27.40;37.20
15359;DHT22;7779;49.596;11.070;2022-07-06T10:38:04;27.40;37.90
15359;DHT22;7779;49.596;11.070;2022-07-06T10:40:36;27.30;36.60
15359;DHT22;7779;49.596;11.070;2022-07-06T10:43:21;27.30;37.30
15359;DHT22;7779;49.596;11.070;2022-07-06T10:53:28;27.60;37.60
15359;DHT22;7779;49.596;11.070;2022-07-06T10:55:58;27.70;37.30
15359;DHT22;7779;49.596;11.070;2022-07-06T10:58:42;27.80;37.60
15359;DHT22;7779;49.596;11.070;2022-07-06T11:01:12;27.80;36.60
15359;DHT22;7779;49.596;11.070;2022-07-06T11:03:43;27.90;37.00
15359;DHT22;7779;49.596;11.070;2022-07-06T11:14:08;27.70;36.50
15359;DHT22;7779;49.596;11.070;2022-07-06T11:21:54;27.60;36.80
15359;DHT22;7779;49.596;11.070;2022-07-06T11:24:31;27.60;36.30
15359;DHT22;7779;49.596;11.070;2022-07-06T11:27:00;27.60;37.00
15359;DHT22;7779;49.596;11.070;2022-07-06T11:29:28;27.60;36.80
15359;DHT22;7779;49.596;11.070;2022-07-06T11:31:57;27.70;36.90
15359;DHT22;7779;49.596;11.070;2022-07-06T11:34:28;27.70;36.70
15359;DHT22;7779;49.596;11.070;2022-07-06T11:36:57;27.80;36.70
15359;DHT22;7779;49.596;11.070;2022-07-06T11:39:31;27.80;36.60
15359;DHT22;7779;49.596;11.070;2022-07-06T11:41:59;27.90;36.10
15359;DHT22;7779;49.596;11.070;2022-07-06T11:44:26;27.80;36.10
15359;DHT22;7779;49.596;11.070;2022-07-06T11:46:53;27.80;36.00
15359;DHT22;7779;49.596;11.070;2022-07-06T11:49:22;27.70;35.70
15359;DHT22;7779;49.596;11.070;2022-07-06T11:51:48;27.60;35.60
15359;DHT22;7779;49.596;11.070;2022-07-06T11:54:18;27.50;35.80
15359;DHT22;7779;49.596;11.070;2022-07-06T11:56:46;27.40;36.00
15359;DHT22;7779;49.596;11.070;2022-07-06T11:59:15;27.30;36.30
15359;DHT22;7779;49.596;11.070;2022-07-06T12:01:42;27.40;36.40
15359;DHT22;7779;49.596;11.070;2022-07-06T12:04:10;27.30;36.10
15359;DHT22;7779;49.596;11.070;2022-07-06T12:06:36;27.30;36.00
15359;DHT22;7779;49.596;11.070;2022-07-06T12:09:03;27.20;36.00
15359;DHT22;7779;49.596;11.070;2022-07-06T12:11:34;27.10;36.10
15359;DHT22;7779;49.596;11.070;2022-07-06T12:16:44;27.10;36.10
15359;DHT22;7779;49.596;11.070;2022-07-06T12:19:14;27.20;36.30
15359;DHT22;7779;49.596;11.070;2022-07-06T12:21:44;27.20;36.10
15359;DHT22;7779;49.596;11.070;2022-07-06T12:24:19;27.30;35.80
15359;DHT22;7779;49.596;11.070;2022-07-06T12:26:46;27.30;35.50
15359;DHT22;7779;49.596;11.070;2022-07-06T12:29:13;27.30;35.50
15359;DHT22;7779;49.596;11.070;2022-07-06T12:31:51;27.30;35.30
15359;DHT22;7779;49.596;11.070;2022-07-06T12:34:25;27.30;35.30
15359;DHT22;7779;49.596;11.070;2022-07-06T12:36:55;27.30;35.00
15359;DHT22;7779;49.596;11.070;2022-07-06T12:39:23;27.30;35.10
15359;DHT22;7779;49.596;11.070;2022-07-06T12:41:54;27.30;35.00
15359;DHT22;7779;49.596;11.070;2022-07-06T12:44:28;27.20;34.80
15359;DHT22;7779;49.596;11.070;2022-07-06T12:47:09;27.20;34.80
15359;DHT22;7779;49.596;11.070;2022-07-06T12:49:37;27.10;35.30
15359;DHT22;7779;49.596;11.070;2022-07-06T12:59:57;27.10;34.90
15359;DHT22;7779;49.596;11.070;2022-07-06T13:05:06;27.10;35.10
15359;DHT22;7779;49.596;11.070;2022-07-06T13:07:37;27.20;35.00
15359;DHT22;7779;49.596;11.070;2022-07-06T13:10:09;27.20;35.20
15359;DHT22;7779;49.596;11.070;2022-07-06T13:12:40;27.20;35.00
15359;DHT22;7779;49.596;11.070;2022-07-06T13:15:07;27.20;34.80
15359;DHT22;7779;49.596;11.070;2022-07-06T13:17:35;27.20;34.90
15359;DHT22;7779;49.596;11.070;2022-07-06T13:20:03;27.20;34.90
15359;DHT22;7779;49.596;11.070;2022-07-06T13:22:33;27.20;34.80
15359;DHT22;7779;49.596;11.070;2022-07-06T13:25:00;27.20;34.80
15359;DHT22;7779;49.596;11.070;2022-07-06T13:27:26;27.20;34.80
15359;DHT22;7779;49.596;11.070;2022-07-06T13:29:52;27.20;34.70
15359;DHT22;7779;49.596;11.070;2022-07-06T13:32:18;27.20;34.60
15359;DHT22;7779;49.596;11.070;2022-07-06T13:34:44;27.30;34.60
15359;DHT22;7779;49.596;11.070;2022-07-06T13:37:10;27.30;35.20
15359;DHT22;7779;49.596;11.070;2022-07-06T13:39:36;27.30;34.40
15359;DHT22;7779;49.596;11.070;2022-07-06T13:42:02;27.30;34.40
15359;DHT22;7779;49.596;11.070;2022-07-06T13:44:28;27.40;33.50
15359;DHT22;7779;49.596;11.070;2022-07-06T13:46:54;27.40;34.40
15359;DHT22;7779;49.596;11.070;2022-07-06T13:49:20;27.40;34.30
15359;DHT22;7779;49.596;11.070;2022-07-06T13:51:46;27.40;34.20
15359;DHT22;7779;49.596;11.070;2022-07-06T13:54:12;27.40;34.10
15359;DHT22;7779;49.596;11.070;2022-07-06T13:56:39;27.40;34.10
15359;DHT22;7779;49.596;11.070;2022-07-06T13:59:06;27.40;33.90
15359;DHT22;7779;49.596;11.070;2022-07-06T14:01:32;27.40;33.80
15359;DHT22;7779;49.596;11.070;2022-07-06T14:03:58;27.40;33.80
15359;DHT22;7779;49.596;11.070;2022-07-06T14:06:24;27.40;33.80
15359;DHT22;7779;49.596;11.070;2022-07-06T14:08:50;27.40;34.00
15359;DHT22;7779;49.596;11.070;2022-07-06T14:11:17;27.50;34.20
15359;DHT22;7779;49.596;11.070;2022-07-06T14:13:43;27.50;34.10
15359;DHT22;7779;49.596;11.070;2022-07-06T14:16:10;27.50;34.10
15359;DHT22;7779;49.596;11.070;2022-07-06T14:18:36;27.50;33.90
15359;DHT22;7779;49.596;11.070;2022-07-06T14:21:02;27.50;33.80
15359;DHT22;7779;49.596;11.070;2022-07-06T14:23:29;27.50;33.70
15359;DHT22;7779;49.596;11.070;2022-07-06T14:25:56;27.50;33.60
15359;DHT22;7779;49.596;11.070;2022-07-06T14:28:22;27.50;33.40
15359;DHT22;7779;49.596;11.070;2022-07-06T14:30:48;27.50;33.20
15359;DHT22;7779;49.596;11.070;2022-07-06T14:33:14;27.50;33.10
15359;DHT22;7779;49.596;11.070;2022-07-06T14:35:45;27.40;32.90
15359;DHT22;7779;49.596;11.070;2022-07-06T14:38:13;27.30;32.90
15359;DHT22;7779;49.596;11.070;2022-07-06T14:40:40;27.30;33.10
15359;DHT22;7779;49.596;11.070;2022-07-06T14:43:06;27.20;33.10
15359;DHT22;7779;49.596;11.070;2022-07-06T14:45:32;27.20;33.30
15359;DHT22;7779;49.596;11.070;2022-07-06T14:47:58;27.20;33.40
15359;DHT22;7779;49.596;11.070;2022-07-06T14:50:24;27.20;33.40
15359;DHT22;7779;49.596;11.070;2022-07-06T14:52:52;27.20;33.40
15359;DHT22;7779;49.596;11.070;2022-07-06T14:55:19;27.20;33.40
15359;DHT22;7779;49.596;11.070;2022-07-06T14:57:45;27.20;33.30
15359;DHT22;7779;49.596;11.070;2022-07-06T15:00:12;27.20;33.30
15359;DHT22;7779;49.596;11.070;2022-07-06T15:02:39;27.20;33.30
15359;DHT22;7779;49.596;11.070;2022-07-06T15:05:05;27.20;33.10
15359;DHT22;7779;49.596;11.070;2022-07-06T15:07:31;27.20;33.10
15359;DHT22;7779;49.596;11.070;2022-07-06T15:09:57;27.30;33.10
15359;DHT22;7779;49.596;11.070;2022-07-06T15:12:23;27.30;33.00
15359;DHT22;7779;49.596;11.070;2022-07-06T15:14:49;27.40;32.90
15359;DHT22;7779;49.596;11.070;2022-07-06T15:17:15;27.40;32.60
15359;DHT22;7779;49.596;11.070;2022-07-06T15:19:43;27.40;32.30
15359;DHT22;7779;49.596;11.070;2022-07-06T15:22:10;27.40;32.20
15359;DHT22;7779;49.596;11.070;2022-07-06T15:24:37;27.40;32.00
15359;DHT22;7779;49.596;11.070;2022-07-06T15:27:04;27.40;31.80
15359;DHT22;7779;49.596;11.070;2022-07-06T15:29:31;27.40;31.50
15359;DHT22;7779;49.596;11.070;2022-07-06T15:31:57;27.30;31.30
15359;DHT22;7779;49.596;11.070;2022-07-06T15:34:24;27.30;31.40
15359;DHT22;7779;49.596;11.070;2022-07-06T15:36:50;27.30;31.50
15359;DHT22;7779;49.596;11.070;2022-07-06T15:39:16;27.20;31.40
15359;DHT22;7779;49.596;11.070;2022-07-06T15:41:43;27.20;31.40
15359;DHT22;7779;49.596;11.070;2022-07-06T15:44:09;27.10;31.30
15359;DHT22;7779;49.596;11.070;2022-07-06T15:46:35;27.10;31.50
15359;DHT22;7779;49.596;11.070;2022-07-06T15:49:02;27.10;31.60
15359;DHT22;7779;49.596;11.070;2022-07-06T15:51:29;27.00;31.60
15359;DHT22;7779;49.596;11.070;2022-07-06T15:53:54;27.00;31.60
15359;DHT22;7779;49.596;11.070;2022-07-06T15:56:21;26.90;31.60
15359;DHT22;7779;49.596;11.070;2022-07-06T15:58:47;26.90;31.70
15359;DHT22;7779;49.596;11.070;2022-07-06T16:01:13;26.80;31.60
15359;DHT22;7779;49.596;11.070;2022-07-06T16:03:39;26.70;31.70
15359;DHT22;7779;49.596;11.070;2022-07-06T16:06:06;26.70;31.80
15359;DHT22;7779;49.596;11.070;2022-07-06T16:08:33;26.60;31.80